Neptune, Iowa
Current Conditions -  °F | °C
As of 10:15 PM on Sunday 21 Dec 2014 (Local Time) from KLRJ Reporting Station
Overcast Overcast  
Wind Chill: 32°   Ceiling: 600
Heat Index: 41°   Visibility: 8mi
Dew Point: 41°   Wind: 18mph
Humidity: 100%   Direction: 170°S
Pressure: 29.6"   Gusts: NA
Location:  42.6065°N, 96.2694°W
Report Text: KLRJ 220415Z AUTO 17016KT 8SM OVC006 05/05 A2960 RMK AO2
Loading
Personal Weather Stations






























Interactive Weather Map New forecast layout! Learn more

10-Day Weather Forecast

Advertisements
Track Severe Weather on mobile